Terminal Aerodrome Forecast
Issued by NWS

Home | Current Version | Previous Version | Graphics & Text | Print | Product List | Glossary On
Versions: 1 2 3 4 5 6 7 8 9 10 11 12 13 14 15 16 17 18 19
000
FTUS43 KDDC 211100
TAFGCK
TAF
KGCK 211139Z 2112/2212 29006KT 1/2SM FG BKN003
     FM211300 34008KT 1 1/2SM BR SCT010
     FM211400 01015G22KT P6SM FEW050
     FM212100 04011KT P6SM SKC=

USA.gov is the U.S. government's official web portal to all federal, state and local government web resources and services.